Coeur D'Alene - Pappy Boyington Field Coeur d'Alene US
ICAO: KCOE
IATA: COE
Category: Medium
Scheduled Services: No

Elevation: 2320 ft
TransAlt. 18000 ft.

Airport Communications:
SPOKANE APP/DEP:132.1
AWOS 3:135.075
SEATTLE CNTR:123.95
BOISE RDO:122.05
CTAF/UNICOM:122.8

KCOE Zoom In..

If Map Doesn't Load, Click Here

Runways:

(A) RW 02 length 5400 ft width 75 ft
---- / hdg 13

(B) RW 06 length 7400 ft width 100 ft
ILS 110.70 / hdg 51

(C) RW 20 length 5400 ft width 75 ft
---- / hdg 193

(D) RW 24 length 7400 ft width 100 ft
---- / hdg 231

Location; KCOE
Day. 26 / Time. 09.56 Zulu
* Altimeter: 30.24
* Temperature: 08° c. 46.4°f.
* Wind from: 000° Speed 00 kn.
Dewpoint: 04° c.
Visibility: 10 Statute Miles.
Clouds: Clear (automated report).

KCOE 260956Z AUTO 00000KT 10SM CLR 08/04 A3024 RMK AO2 SLP255 T00780044 PNO $


Wind - Calm.

 
 
jpsmedia.com for Web Design worldairports.se 2018   terms of use